createdAt,value
2022-08-26T00:02:41.054Z,101148.53
2022-08-26T00:05:28.590Z,101154.53
2022-08-26T00:08:16.759Z,101155.28
2022-08-26T00:11:04.660Z,101159.31
2022-08-26T00:13:51.735Z,101146.47
2022-08-26T00:16:41.016Z,101158.50
2022-08-26T00:19:14.520Z,101159.31
2022-08-26T00:21:41.561Z,101159.72
2022-08-26T00:24:08.311Z,101164.91
2022-08-26T00:26:35.038Z,101164.09
2022-08-26T00:29:01.934Z,101161.25
2022-08-26T00:31:31.232Z,101160.44
2022-08-26T00:33:59.437Z,101157.22
2022-08-26T00:36:29.830Z,101161.66
2022-08-26T00:38:58.130Z,101157.22
2022-08-26T00:41:24.921Z,101155.59
2022-08-26T00:43:53.432Z,101152.38
2022-08-26T00:46:50.967Z,101155.53
2022-08-26T00:49:45.030Z,101137.06
2022-08-26T00:52:32.347Z,101135.81
2022-08-26T00:55:41.294Z,101135.81
2022-08-26T00:58:31.812Z,101132.59
2022-08-26T01:01:19.335Z,101119.78
2022-08-26T01:04:13.923Z,101120.91
2022-08-26T01:07:02.161Z,101124.03
2022-08-26T01:09:49.720Z,101135.19
2022-08-26T01:12:53.635Z,101141.09
2022-08-26T01:15:47.905Z,101138.69
2022-08-26T01:18:36.038Z,101135.09
2022-08-26T01:22:03.870Z,101126.66
2022-08-26T01:24:51.087Z,101136.19
2022-08-26T01:27:38.813Z,101132.13
2022-08-26T01:30:28.145Z,101136.06
2022-08-26T01:33:19.493Z,101132.78
2022-08-26T01:40:14.085Z,101146.56
2022-08-26T01:51:18.688Z,101157.97
2022-08-26T01:58:37.150Z,101161.28
2022-08-26T02:01:04.515Z,101160.16
2022-08-26T02:03:59.072Z,101157.41
2022-08-26T02:06:25.959Z,101168.66
2022-08-26T02:08:55.612Z,101163.09
2022-08-26T02:11:40.575Z,101171.13
2022-08-26T02:14:16.290Z,101172.69
2022-08-26T02:16:47.278Z,101177.53
2022-08-26T02:19:18.186Z,101171.94
2022-08-26T02:21:51.180Z,101177.94
2022-08-26T02:24:27.318Z,101175.84
2022-08-26T02:26:56.019Z,101174.25
2022-08-26T02:29:27.838Z,101183.81
2022-08-26T02:31:55.845Z,101181.34
2022-08-26T02:34:31.328Z,101184.16
2022-08-26T02:37:06.285Z,101178.13
2022-08-26T02:39:36.703Z,101173.34
2022-08-26T02:42:05.502Z,101172.47
2022-08-26T02:44:32.951Z,101173.22
2022-08-26T02:47:01.077Z,101180.34
2022-08-26T02:49:30.557Z,101175.88
2022-08-26T02:51:57.948Z,101180.63
2022-08-26T02:54:29.023Z,101177.34
2022-08-26T02:56:56.465Z,101182.50
2022-08-26T02:59:24.252Z,101184.91
2022-08-26T03:02:42.174Z,101180.88
2022-08-26T03:05:29.319Z,101173.63
2022-08-26T03:08:14.395Z,101169.28
2022-08-26T03:10:41.322Z,101169.69
2022-08-26T03:13:08.384Z,101175.72
2022-08-26T03:15:36.352Z,101184.16
2022-08-26T03:18:04.972Z,101173.81
2022-08-26T03:20:32.164Z,101183.84
2022-08-26T03:22:59.034Z,101182.22
2022-08-26T03:29:37.399Z,101177.81
2022-08-26T03:32:19.240Z,101173.03
2022-08-26T03:34:47.110Z,101174.66
2022-08-26T03:37:14.271Z,101174.22
2022-08-26T03:39:41.786Z,101169.03
2022-08-26T03:42:08.688Z,101162.63
2022-08-26T03:44:37.818Z,101170.19
2022-08-26T03:47:08.938Z,101170.63
2022-08-26T03:57:37.227Z,101165.09
2022-08-26T04:01:06.209Z,101169.72
2022-08-26T04:03:52.708Z,101169.88
2022-08-26T04:06:19.528Z,101171.34
2022-08-26T04:08:46.368Z,101171.22
2022-08-26T04:11:19.782Z,101171.50
2022-08-26T04:13:49.722Z,101163.41
2022-08-26T04:16:18.189Z,101163.78
2022-08-26T04:18:46.762Z,101168.19
2022-08-26T04:21:15.395Z,101155.81
2022-08-26T04:28:10.703Z,101164.41
2022-08-26T04:30:40.775Z,101172.19
2022-08-26T04:33:32.425Z,101164.94
2022-08-26T04:36:02.247Z,101164.84
2022-08-26T04:39:06.341Z,101156.47
2022-08-26T04:41:33.909Z,101157.25
2022-08-26T04:44:13.847Z,101159.59
2022-08-26T04:46:43.878Z,101163.13
2022-08-26T04:49:35.097Z,101168.72
2022-08-26T04:52:03.885Z,101176.50
2022-08-26T04:55:12.227Z,101171.66
2022-08-26T04:57:40.785Z,101175.47
2022-08-26T05:00:12.288Z,101169.03
2022-08-26T05:03:27.494Z,101177.66
2022-08-26T05:05:58.459Z,101172.94
2022-08-26T05:09:07.261Z,101176.22
2022-08-26T05:11:34.262Z,101172.94
2022-08-26T05:14:02.376Z,101180.09
2022-08-26T05:31:52.803Z,101179.84
2022-08-26T05:34:23.237Z,101184.19
2022-08-26T05:36:52.713Z,101193.38
2022-08-26T05:39:21.502Z,101192.56
2022-08-26T05:41:48.231Z,101197.31
2022-08-26T05:44:17.487Z,101196.16
2022-08-26T05:46:45.692Z,101196.59
2022-08-26T05:49:14.542Z,101206.94
2022-08-26T05:51:45.292Z,101206.06
2022-08-26T05:54:13.111Z,101200.84
2022-08-26T05:56:40.078Z,101206.84
2022-08-26T05:59:14.537Z,101208.91
2022-08-26T06:01:43.799Z,101207.63
2022-08-26T06:04:12.025Z,101208.41
2022-08-26T06:06:43.072Z,101209.94
2022-08-26T06:09:12.127Z,101209.50
2022-08-26T06:11:39.797Z,101213.53
2022-08-26T06:14:07.998Z,101229.56
2022-08-26T06:16:38.731Z,101219.56
2022-08-26T06:19:10.614Z,101214.06
2022-08-26T06:21:40.509Z,101220.53
2022-08-26T06:24:30.481Z,101225.75
2022-08-26T06:27:03.298Z,101226.84
2022-08-26T06:29:33.845Z,101232.44
2022-08-26T06:32:02.765Z,101232.56
2022-08-26T06:34:30.327Z,101236.00
2022-08-26T06:37:01.223Z,101228.94
2022-08-26T06:39:30.853Z,101232.91
2022-08-26T06:42:02.724Z,101236.16
2022-08-26T06:44:30.441Z,101237.78
2022-08-26T06:46:57.362Z,101243.34
2022-08-26T06:49:26.560Z,101250.53
2022-08-26T06:52:00.183Z,101253.75
2022-08-26T06:54:31.832Z,101251.13
2022-08-26T06:56:59.161Z,101251.66
2022-08-26T06:59:26.211Z,101254.88
2022-08-26T07:01:54.857Z,101257.28
2022-08-26T07:04:23.248Z,101261.63
2022-08-26T07:06:53.349Z,101256.34
2022-08-26T07:09:23.290Z,101260.38
2022-08-26T07:11:51.554Z,101262.56
2022-08-26T07:14:19.304Z,101268.25
2022-08-26T07:16:49.234Z,101266.19
2022-08-26T07:19:31.240Z,101268.63
2022-08-26T07:22:03.504Z,101265.38
2022-08-26T07:24:35.341Z,101269.34
2022-08-26T07:31:15.397Z,101277.72
2022-08-26T07:33:44.345Z,101282.13
2022-08-26T07:36:13.399Z,101282.88
2022-08-26T07:38:41.795Z,101286.75
2022-08-26T07:41:09.128Z,101277.41
2022-08-26T07:43:37.574Z,101283.72
2022-08-26T07:46:07.238Z,101277.41
2022-08-26T07:48:36.500Z,101276.25
2022-08-26T07:51:06.094Z,101280.94
2022-08-26T07:53:34.890Z,101277.50
2022-08-26T08:00:16.174Z,101285.16
2022-08-26T08:03:05.848Z,101282.72
2022-08-26T08:06:47.339Z,101293.22
2022-08-26T08:09:16.038Z,101282.50
2022-08-26T08:12:37.239Z,101285.19
2022-08-26T08:19:39.628Z,101292.56
2022-08-26T08:23:08.477Z,101291.31
2022-08-26T08:29:43.607Z,101293.81
2022-08-26T08:40:45.855Z,101297.28
2022-08-26T08:47:57.120Z,101296.06
2022-08-26T08:50:42.182Z,101303.00
2022-08-26T08:53:18.245Z,101292.84
2022-08-26T08:59:47.669Z,101300.06
2022-08-26T09:02:29.492Z,101299.16
2022-08-26T09:05:34.055Z,101294.63
2022-08-26T09:08:11.893Z,101291.72
2022-08-26T09:10:47.218Z,101298.25
2022-08-26T09:13:25.255Z,101303.50
2022-08-26T09:16:09.930Z,101313.78
2022-08-26T09:19:11.271Z,101299.81
2022-08-26T09:21:38.462Z,101304.75
2022-08-26T09:24:06.985Z,101300.91
2022-08-26T09:34:20.016Z,101322.25
2022-08-26T09:36:53.570Z,101329.13
2022-08-26T09:43:33.675Z,101326.53
2022-08-26T09:50:36.616Z,101340.84
2022-08-26T10:05:19.353Z,101332.41
2022-08-26T10:07:50.183Z,101326.41
2022-08-26T10:10:53.311Z,101332.81
2022-08-26T10:21:02.793Z,101339.81
2022-08-26T10:23:56.265Z,101345.84
2022-08-26T10:31:00.850Z,101339.28
2022-08-26T10:33:27.786Z,101338.63
2022-08-26T10:37:14.181Z,101343.47
2022-08-26T10:48:12.566Z,101349.41
2022-08-26T10:51:02.306Z,101341.09
2022-08-26T10:58:26.701Z,101357.88
2022-08-26T11:05:26.137Z,101348.44
2022-08-26T11:08:20.545Z,101354.16
2022-08-26T11:15:53.750Z,101356.97
2022-08-26T11:18:42.801Z,101355.00
2022-08-26T11:25:30.900Z,101359.66
2022-08-26T11:28:05.585Z,101361.66
2022-08-26T11:30:57.725Z,101361.66
2022-08-26T11:34:02.662Z,101351.31
2022-08-26T11:36:47.872Z,101363.50
2022-08-26T11:39:20.601Z,101353.97
2022-08-26T11:41:52.646Z,101354.19
2022-08-26T11:44:26.049Z,101355.59
2022-08-26T11:46:59.737Z,101355.03
2022-08-26T11:49:28.527Z,101360.97
2022-08-26T11:55:43.495Z,101356.16
2022-08-26T11:58:31.468Z,101359.50
2022-08-26T12:10:07.908Z,101358.97
2022-08-26T12:12:58.850Z,101363.78
2022-08-26T12:15:53.503Z,101370.59
2022-08-26T12:22:34.689Z,101365.41
2022-08-26T12:25:10.215Z,101363.03
2022-08-26T12:27:45.570Z,101371.47
2022-08-26T12:34:44.183Z,101373.50
2022-08-26T12:37:35.147Z,101374.56
2022-08-26T12:44:37.924Z,101376.84
2022-08-26T12:47:32.752Z,101381.72
2022-08-26T12:50:47.926Z,101373.50
2022-08-26T12:53:16.684Z,101391.16
2022-08-26T12:55:50.486Z,101378.34
2022-08-26T13:01:58.103Z,101380.56
2022-08-26T13:04:46.266Z,101369.84
2022-08-26T13:07:33.328Z,101373.06
2022-08-26T13:14:38.678Z,101385.84
2022-08-26T13:17:05.484Z,101379.44
2022-08-26T13:23:24.262Z,101369.25
2022-08-26T13:29:32.688Z,101369.44
2022-08-26T13:32:00.268Z,101366.59
2022-08-26T13:34:27.722Z,101374.22
2022-08-26T13:37:45.544Z,101375.13
2022-08-26T13:43:58.165Z,101372.59
2022-08-26T13:50:17.651Z,101383.28
2022-08-26T13:52:44.413Z,101384.72
2022-08-26T13:55:11.202Z,101379.03
2022-08-26T13:57:38.583Z,101373.72
2022-08-26T14:00:06.404Z,101383.63
2022-08-26T14:02:38.058Z,101380.81
2022-08-26T14:05:05.719Z,101377.19
2022-08-26T14:07:32.531Z,101383.63
2022-08-26T14:09:59.416Z,101374.88
2022-08-26T14:12:26.211Z,101376.56
2022-08-26T14:19:05.831Z,101369.94
2022-08-26T14:21:53.113Z,101376.41
2022-08-26T14:24:40.231Z,101372.06
2022-08-26T14:27:59.689Z,101376.13
2022-08-26T14:34:20.394Z,101376.53
2022-08-26T14:41:54.070Z,101374.09
2022-08-26T14:44:44.541Z,101370.91
2022-08-26T14:47:31.672Z,101367.00
2022-08-26T14:50:25.474Z,101371.09
2022-08-26T14:53:31.099Z,101369.06
2022-08-26T14:59:50.604Z,101366.31
2022-08-26T15:02:32.549Z,101366.00
2022-08-26T15:20:59.628Z,101359.88
2022-08-26T15:23:27.053Z,101353.03
2022-08-26T15:25:54.714Z,101353.06
2022-08-26T15:28:22.356Z,101357.84
2022-08-26T15:30:51.277Z,101351.03
2022-08-26T15:37:08.802Z,101359.16
2022-08-26T15:43:29.152Z,101348.06
2022-08-26T15:50:07.638Z,101347.81
2022-08-26T15:52:34.424Z,101354.66
2022-08-26T16:06:28.352Z,101345.78
2022-08-26T16:08:56.261Z,101341.78
2022-08-26T16:11:24.220Z,101342.19
2022-08-26T16:13:51.339Z,101346.22
2022-08-26T16:16:19.580Z,101341.00
2022-08-26T16:18:46.366Z,101331.69
2022-08-26T16:21:19.487Z,101334.88
2022-08-26T16:23:47.296Z,101335.69
2022-08-26T16:26:17.812Z,101344.19
2022-08-26T16:41:16.679Z,101329.25
2022-08-26T16:43:43.452Z,101324.81
2022-08-26T16:46:11.396Z,101322.00
2022-08-26T16:48:39.624Z,101326.41
2022-08-26T16:55:15.858Z,101317.56
2022-08-26T16:57:44.471Z,101322.78
2022-08-26T17:00:17.114Z,101332.44
2022-08-26T17:02:44.901Z,101331.59
2022-08-26T17:05:12.150Z,101329.97
2022-08-26T17:07:39.617Z,101332.78
2022-08-26T17:10:07.744Z,101323.91
2022-08-26T17:12:36.613Z,101340.78
2022-08-26T17:15:06.575Z,101332.72
2022-08-26T17:25:26.160Z,101345.00
2022-08-26T17:28:13.728Z,101347.41
2022-08-26T17:31:01.621Z,101334.97
2022-08-26T17:33:53.358Z,101340.56
2022-08-26T17:40:24.534Z,101342.50
2022-08-26T17:43:12.487Z,101340.47
2022-08-26T17:46:04.529Z,101341.25
2022-08-26T17:48:55.047Z,101348.03
2022-08-26T17:55:45.149Z,101353.63
2022-08-26T17:58:32.359Z,101347.63
2022-08-26T18:01:26.142Z,101352.41
2022-08-26T18:04:14.889Z,101358.75
2022-08-26T18:07:02.054Z,101351.25
2022-08-26T18:09:49.231Z,101358.31
2022-08-26T18:12:36.994Z,101357.16
2022-08-26T18:15:24.177Z,101362.78
2022-08-26T18:22:12.201Z,101353.19
2022-08-26T18:25:05.408Z,101366.81
2022-08-26T18:27:52.528Z,101367.13
2022-08-26T18:30:41.876Z,101373.88
2022-08-26T18:33:29.022Z,101370.56
2022-08-26T18:36:22.308Z,101373.31
2022-08-26T18:39:11.500Z,101372.84
2022-08-26T18:41:58.940Z,101375.22
2022-08-26T18:44:46.028Z,101368.72
2022-08-26T18:54:59.599Z,101378.50
2022-08-26T18:57:27.483Z,101383.63
2022-08-26T18:59:54.202Z,101385.53
2022-08-26T19:03:18.927Z,101389.06
2022-08-26T19:05:46.566Z,101385.38
2022-08-26T19:12:43.936Z,101398.41
2022-08-26T19:15:11.192Z,101407.97
2022-08-26T19:17:37.994Z,101397.06
2022-08-26T19:20:05.658Z,101403.78
2022-08-26T19:22:32.492Z,101405.34
2022-08-26T19:24:59.222Z,101403.63
2022-08-26T19:27:25.947Z,101413.53
2022-08-26T19:29:52.750Z,101407.03
2022-08-26T19:32:24.295Z,101412.97
2022-08-26T19:38:42.949Z,101420.50
2022-08-26T19:41:14.885Z,101422.50
2022-08-26T19:43:41.515Z,101424.44
2022-08-26T19:46:21.767Z,101435.63
2022-08-26T19:49:07.260Z,101433.66
2022-08-26T19:55:48.541Z,101428.63
2022-08-26T19:58:15.259Z,101432.50
2022-08-26T20:00:53.041Z,101438.78
2022-08-26T20:03:19.825Z,101435.50
2022-08-26T20:05:50.631Z,101440.22
2022-08-26T20:12:41.836Z,101438.59
2022-08-26T20:15:11.993Z,101442.47
2022-08-26T20:18:00.900Z,101440.72
2022-08-26T20:20:46.542Z,101441.75
2022-08-26T20:27:07.698Z,101441.88
2022-08-26T20:33:15.552Z,101439.16
2022-08-26T20:35:42.634Z,101435.13
2022-08-26T20:38:20.846Z,101440.19
2022-08-26T20:44:54.374Z,101439.59
2022-08-26T20:51:12.414Z,101452.84
2022-08-26T20:57:25.692Z,101451.34
2022-08-26T20:59:52.430Z,101462.53
2022-08-26T21:02:19.327Z,101459.28
2022-08-26T21:04:46.164Z,101459.56
2022-08-26T21:07:13.710Z,101457.44
2022-08-26T21:09:40.654Z,101458.88
2022-08-26T21:12:09.043Z,101461.59
2022-08-26T21:14:36.881Z,101467.53
2022-08-26T21:17:04.216Z,101467.84
2022-08-26T21:19:31.096Z,101462.16
2022-08-26T21:21:59.021Z,101467.31
2022-08-26T21:24:25.927Z,101464.06
2022-08-26T21:26:52.789Z,101463.16
2022-08-26T21:29:22.065Z,101464.63
2022-08-26T21:35:39.190Z,101458.13
2022-08-26T21:38:05.961Z,101462.84
2022-08-26T21:40:33.763Z,101469.97
2022-08-26T21:43:00.653Z,101476.25
2022-08-26T21:45:27.576Z,101466.25
2022-08-26T21:47:54.587Z,101471.72
2022-08-26T21:50:21.507Z,101465.72
2022-08-26T21:52:48.387Z,101478.78
2022-08-26T21:55:15.265Z,101478.41
2022-08-26T21:57:42.008Z,101481.19
2022-08-26T22:00:10.279Z,101481.44
2022-08-26T22:02:37.241Z,101474.16
2022-08-26T22:05:04.438Z,101477.28
2022-08-26T22:07:31.415Z,101476.84
2022-08-26T22:09:58.180Z,101480.78
2022-08-26T22:12:25.430Z,101486.75
2022-08-26T22:14:52.185Z,101484.66
2022-08-26T22:17:18.927Z,101482.59
2022-08-26T22:19:46.715Z,101490.53
2022-08-26T22:22:14.554Z,101495.28
2022-08-26T22:24:43.311Z,101492.03
2022-08-26T22:27:12.058Z,101492.75
2022-08-26T22:29:39.204Z,101500.69
2022-08-26T22:32:06.270Z,101492.75
2022-08-26T22:34:33.804Z,101488.00
2022-08-26T22:37:02.873Z,101498.34
2022-08-26T22:39:29.646Z,101485.53
2022-08-26T22:41:57.276Z,101489.16
2022-08-26T22:44:25.497Z,101494.03
2022-08-26T22:46:57.076Z,101495.66
2022-08-26T22:49:24.653Z,101486.56
2022-08-26T22:51:51.443Z,101490.63
2022-08-26T22:54:18.489Z,101493.03
2022-08-26T22:56:45.518Z,101490.97
2022-08-26T22:59:13.181Z,101498.44
2022-08-26T23:01:43.625Z,101491.94
2022-08-26T23:04:11.679Z,101487.44
2022-08-26T23:06:40.911Z,101495.72
2022-08-26T23:09:08.359Z,101491.66
2022-08-26T23:11:35.711Z,101500.41
2022-08-26T23:18:00.735Z,101495.41
2022-08-26T23:20:28.757Z,101504.03
2022-08-26T23:22:56.368Z,101493.25
2022-08-26T23:25:23.266Z,101501.63
2022-08-26T23:27:52.052Z,101497.13
2022-08-26T23:30:22.058Z,101492.72
2022-08-26T23:32:49.322Z,101491.19
2022-08-26T23:35:21.531Z,101492.25
2022-08-26T23:37:52.579Z,101489.25
2022-08-26T23:40:25.614Z,101485.91
2022-08-26T23:42:54.893Z,101489.31
2022-08-26T23:45:22.797Z,101488.31
2022-08-26T23:47:52.576Z,101494.13
2022-08-26T23:50:22.237Z,101496.00
2022-08-26T23:53:08.716Z,101480.34
2022-08-26T23:55:38.047Z,101485.81
2022-08-26T23:58:06.345Z,101483.47
